Time;durP1;ratioP1;P1;durP2;ratioP2;P2;SDS_P1;SDS_P2;PMS_P1;PMS_P2;Temp;Humidity;BMP_temperature;BMP_pressure;BME280_temperature;BME280_humidity;BME280_pressure;Samples;Min_cycle;Max_cycle;Signal;HPM_P1;HPM_P2
2021/12/12 00:00:03;;;;;;;;;;;9.40;60.90;;;;;;6190646;23;19958;-91
2021/12/12 00:02:44;;;;;;;;;;;9.40;61.00;;;;;;6218436;23;19995;-91
2021/12/12 00:05:11;;;;;;;;;;;9.50;61.00;;;;;;6217698;23;20014;-91
2021/12/12 00:07:37;;;;;;;;;;;9.50;61.20;;;;;;6191014;23;19943;-89
2021/12/12 00:10:05;;;;;;;;;;;9.50;61.20;;;;;;6214660;23;20321;-90
2021/12/12 00:12:35;;;;;;;;;;;9.50;61.20;;;;;;6190670;23;19908;-89
2021/12/12 00:15:03;;;;;;;;;;;9.60;61.10;;;;;;6190403;23;20208;-90
2021/12/12 00:17:28;;;;;;;;;;;9.60;61.20;;;;;;6215774;23;19919;-90
2021/12/12 00:19:54;;;;;;;;;;;9.70;61.10;;;;;;6189970;23;19907;-91
2021/12/12 00:22:22;;;;;;;;;;;9.60;61.10;;;;;;6191528;23;19908;-88
2021/12/12 00:24:48;;;;;;;;;;;9.70;61.20;;;;;;6190529;23;20332;-89
2021/12/12 00:27:14;;;;;;;;;;;9.70;61.10;;;;;;6217211;23;19908;-92
2021/12/12 00:29:41;;;;;;;;;;;9.70;61.10;;;;;;6191333;23;19915;-90
2021/12/12 00:32:10;;;;;;;;;;;9.80;61.20;;;;;;6217057;23;19912;-90
2021/12/12 00:34:36;;;;;;;;;;;9.80;61.10;;;;;;6216494;23;19931;-89
2021/12/12 00:37:04;;;;;;;;;;;9.80;61.20;;;;;;6216347;23;19919;-89
2021/12/12 00:39:31;;;;;;;;;;;9.80;61.20;;;;;;6216397;23;19908;-89
2021/12/12 00:42:17;;;;;;;;;;;9.90;61.30;;;;;;6217832;23;20219;-89
2021/12/12 00:44:44;;;;;;;;;;;9.90;61.20;;;;;;6216812;23;19912;-90
2021/12/12 00:47:10;;;;;;;;;;;9.90;61.10;;;;;;6242261;23;19966;-92
2021/12/12 00:49:36;;;;;;;;;;;10.00;61.00;;;;;;6242594;23;19904;-91
2021/12/12 00:52:03;;;;;;;;;;;10.00;60.80;;;;;;6216723;23;20006;-90
2021/12/12 00:54:31;;;;;;;;;;;10.00;60.80;;;;;;6242533;23;19907;-91
2021/12/12 00:57:00;;;;;;;;;;;10.00;60.90;;;;;;6242658;23;20317;-91
2021/12/12 00:59:26;;;;;;;;;;;10.00;60.80;;;;;;6243914;23;20643;-89
2021/12/12 01:01:52;;;;;;;;;;;10.10;60.80;;;;;;6244797;23;19911;-90
2021/12/12 01:04:19;;;;;;;;;;;10.00;60.70;;;;;;6243889;23;19946;-89
2021/12/12 01:06:46;;;;;;;;;;;10.10;60.80;;;;;;6219889;23;20232;-88
2021/12/12 01:09:14;;;;;;;;;;;10.10;60.60;;;;;;6244327;23;20309;-90
2021/12/12 01:11:42;;;;;;;;;;;10.20;60.50;;;;;;6245446;23;20317;-91
2021/12/12 01:14:10;;;;;;;;;;;10.20;60.40;;;;;;6244646;23;19939;-90
2021/12/12 01:16:37;;;;;;;;;;;10.20;60.20;;;;;;6220479;23;20325;-91
2021/12/12 01:19:08;;;;;;;;;;;10.30;60.30;;;;;;6248321;23;19904;-90
2021/12/12 01:21:36;;;;;;;;;;;10.30;60.20;;;;;;6244424;23;19916;-89
2021/12/12 01:24:04;;;;;;;;;;;10.40;60.20;;;;;;6245261;23;19908;-91
2021/12/12 01:26:30;;;;;;;;;;;10.40;60.00;;;;;;6221954;23;19923;-91
2021/12/12 01:28:56;;;;;;;;;;;10.50;59.80;;;;;;6245964;23;19908;-93
2021/12/12 01:31:29;;;;;;;;;;;10.50;59.70;;;;;;6222460;23;19962;-91
2021/12/12 01:33:59;;;;;;;;;;;10.50;60.10;;;;;;6193342;23;19908;-89
2021/12/12 01:36:41;;;;;;;;;;;10.50;59.90;;;;;;6194462;23;20264;-90
2021/12/12 01:39:06;;;;;;;;;;;10.60;59.70;;;;;;6193468;23;19915;-88
2021/12/12 01:41:46;;;;;;;;;;;10.70;59.80;;;;;;6194182;23;19939;-89
2021/12/12 01:44:15;;;;;;;;;;;10.60;59.60;;;;;;6196643;23;19912;-90
2021/12/12 01:46:50;;;;;;;;;;;10.60;59.30;;;;;;6198043;23;19955;-91
2021/12/12 01:49:18;;;;;;;;;;;10.60;59.50;;;;;;6228386;23;20239;-91
2021/12/12 01:51:44;;;;;;;;;;;10.60;59.20;;;;;;6199661;23;19911;-92
2021/12/12 01:54:11;;;;;;;;;;;10.60;59.30;;;;;;6199922;23;19964;-94
2021/12/12 01:56:42;;;;;;;;;;;10.50;58.80;;;;;;6224451;23;19908;-91
2021/12/12 01:59:08;;;;;;;;;;;10.50;58.80;;;;;;6196697;23;19962;-92
2021/12/12 02:01:55;;;;;;;;;;;10.50;58.70;;;;;;6192735;23;19932;-93
2021/12/12 02:04:23;;;;;;;;;;;10.50;59.00;;;;;;6218478;23;19947;-91
2021/12/12 02:06:49;;;;;;;;;;;10.50;58.60;;;;;;6219039;23;19904;-95
2021/12/12 02:09:17;;;;;;;;;;;10.60;58.90;;;;;;6193657;23;19916;-91
2021/12/12 02:11:43;;;;;;;;;;;10.50;58.60;;;;;;6219405;23;19910;-94
2021/12/12 02:14:11;;;;;;;;;;;10.50;58.50;;;;;;6192591;23;19923;-93
2021/12/12 02:16:47;;;;;;;;;;;10.50;58.50;;;;;;6219363;23;19986;-91
2021/12/12 02:19:13;;;;;;;;;;;10.50;58.40;;;;;;6193634;23;19912;-92
2021/12/12 02:21:56;;;;;;;;;;;10.50;58.60;;;;;;6218963;23;20413;-93
2021/12/12 02:35:31;;;;;;;;;;;10.40;58.40;;;;;;6219713;23;19910;-93
2021/12/12 02:37:57;;;;;;;;;;;10.40;58.60;;;;;;6192503;23;19923;-93
2021/12/12 02:40:28;;;;;;;;;;;10.40;58.30;;;;;;6219612;23;19911;-93
2021/12/12 02:42:54;;;;;;;;;;;10.50;58.40;;;;;;6193479;23;19919;-93
2021/12/12 02:45:21;;;;;;;;;;;10.50;58.20;;;;;;6168517;23;20254;-92
2021/12/12 02:47:54;;;;;;;;;;;10.40;58.10;;;;;;6193878;23;20370;-92
2021/12/12 02:50:23;;;;;;;;;;;10.40;57.90;;;;;;6220576;23;19908;-93
2021/12/12 02:52:51;;;;;;;;;;;10.50;57.90;;;;;;6192886;23;20563;-92
2021/12/12 02:55:19;;;;;;;;;;;10.50;57.80;;;;;;6219226;23;19904;-94
2021/12/12 02:57:45;;;;;;;;;;;10.50;57.80;;;;;;6193351;23;20388;-94
2021/12/12 03:00:14;;;;;;;;;;;10.50;57.70;;;;;;6193386;23;19939;-92
2021/12/12 03:02:46;;;;;;;;;;;10.40;57.50;;;;;;6219672;23;19915;-93
2021/12/12 03:05:12;;;;;;;;;;;10.50;57.60;;;;;;6193923;23;19904;-93
2021/12/12 03:07:38;;;;;;;;;;;10.40;57.40;;;;;;6193589;23;19912;-94
2021/12/12 03:10:05;;;;;;;;;;;10.50;57.20;;;;;;6220011;23;19978;-94
2021/12/12 03:12:33;;;;;;;;;;;10.40;57.00;;;;;;6219454;23;19919;-93
2021/12/12 03:15:13;;;;;;;;;;;10.40;56.90;;;;;;6220020;23;19904;-92
2021/12/12 03:17:39;;;;;;;;;;;10.40;57.10;;;;;;6193573;23;19964;-91
2021/12/12 03:20:23;;;;;;;;;;;10.40;56.80;;;;;;6219620;23;19908;-94
2021/12/12 03:22:48;;;;;;;;;;;10.50;57.00;;;;;;6192987;23;19912;-93
2021/12/12 03:25:14;;;;;;;;;;;10.50;56.80;;;;;;6221526;23;20297;-94
2021/12/12 03:27:39;;;;;;;;;;;10.50;56.70;;;;;;6193380;23;19923;-95
2021/12/12 03:30:05;;;;;;;;;;;10.40;56.60;;;;;;6194983;23;20276;-94
2021/12/12 03:32:31;;;;;;;;;;;10.50;56.70;;;;;;6221190;23;19966;-94
2021/12/12 03:35:00;;;;;;;;;;;10.40;56.50;;;;;;6195046;23;19908;-93
2021/12/12 03:37:27;;;;;;;;;;;10.50;56.30;;;;;;6219845;23;19919;-94
2021/12/12 03:39:54;;;;;;;;;;;10.50;56.40;;;;;;6219755;23;19908;-92
2021/12/12 03:42:22;;;;;;;;;;;10.50;56.40;;;;;;6192997;23;19970;-92
2021/12/12 03:44:48;;;;;;;;;;;10.50;56.10;;;;;;6193191;23;20320;-93
2021/12/12 03:47:18;;;;;;;;;;;10.50;56.40;;;;;;6193996;23;19943;-94
2021/12/12 03:49:44;;;;;;;;;;;10.50;56.20;;;;;;6193880;23;20378;-93
2021/12/12 03:52:10;;;;;;;;;;;10.50;56.30;;;;;;6194095;23;19931;-93
2021/12/12 03:54:36;;;;;;;;;;;10.50;56.20;;;;;;6220422;23;19912;-93
2021/12/12 03:57:03;;;;;;;;;;;10.50;56.20;;;;;;6194420;23;19911;-93
2021/12/12 03:59:28;;;;;;;;;;;10.50;56.20;;;;;;6193585;23;19904;-92
2021/12/12 04:01:54;;;;;;;;;;;10.60;56.30;;;;;;6193452;23;19936;-94
2021/12/12 04:04:24;;;;;;;;;;;10.60;55.90;;;;;;6193672;23;19947;-93
2021/12/12 04:06:50;;;;;;;;;;;10.60;56.10;;;;;;6218334;23;19904;-93
2021/12/12 04:09:16;;;;;;;;;;;10.60;55.90;;;;;;6193652;23;19919;-93
2021/12/12 04:11:43;;;;;;;;;;;10.60;56.10;;;;;;6192307;23;19927;-93
2021/12/12 04:14:09;;;;;;;;;;;10.60;56.30;;;;;;6193237;23;19912;-92
2021/12/12 04:16:36;;;;;;;;;;;10.70;56.30;;;;;;6192891;23;19912;-93
2021/12/12 04:19:03;;;;;;;;;;;10.70;55.90;;;;;;6218815;23;19986;-93
2021/12/12 04:21:29;;;;;;;;;;;10.70;56.00;;;;;;6191765;23;19939;-92
2021/12/12 04:23:55;;;;;;;;;;;10.60;55.70;;;;;;6191269;23;20351;-92
2021/12/12 04:26:26;;;;;;;;;;;10.60;55.60;;;;;;6191825;23;19943;-92
2021/12/12 04:28:55;;;;;;;;;;;10.70;55.50;;;;;;6191492;23;19915;-91
2021/12/12 04:31:20;;;;;;;;;;;10.70;55.60;;;;;;6191084;23;19935;-92
2021/12/12 04:33:46;;;;;;;;;;;10.70;55.40;;;;;;6190660;23;20379;-92
2021/12/12 04:36:11;;;;;;;;;;;10.70;55.50;;;;;;6217184;23;19974;-91
2021/12/12 04:38:37;;;;;;;;;;;10.70;55.60;;;;;;6190708;23;19934;-91
2021/12/12 04:41:02;;;;;;;;;;;10.70;55.10;;;;;;6217709;23;19951;-92
2021/12/12 04:43:28;;;;;;;;;;;10.70;55.00;;;;;;6191239;23;19908;-92
2021/12/12 04:46:08;;;;;;;;;;;10.80;55.40;;;;;;6190823;23;19919;-91
2021/12/12 04:51:30;;;;;;;;;;;10.80;55.00;;;;;;6217262;23;19918;-92
2021/12/12 04:54:25;;;;;;;;;;;10.70;54.90;;;;;;6216927;23;19919;-92
2021/12/12 04:57:16;;;;;;;;;;;10.80;55.00;;;;;;6084575;23;20016;-93
2021/12/12 04:59:46;;;;;;;;;;;10.70;55.40;;;;;;6208983;23;19912;-92
2021/12/12 05:02:15;;;;;;;;;;;10.70;55.50;;;;;;6215259;23;19911;-92
2021/12/12 05:04:47;;;;;;;;;;;10.70;56.10;;;;;;6189947;23;19915;-91
2021/12/12 05:07:17;;;;;;;;;;;10.60;56.30;;;;;;6214105;23;19911;-92
2021/12/12 05:09:53;;;;;;;;;;;10.60;56.70;;;;;;6217211;23;19912;-91
2021/12/12 05:12:22;;;;;;;;;;;10.40;57.00;;;;;;6189388;23;19953;-92
2021/12/12 05:14:55;;;;;;;;;;;10.40;57.40;;;;;;6214158;23;19915;-92
2021/12/12 05:17:28;;;;;;;;;;;10.30;57.60;;;;;;6213413;23;19915;-92
2021/12/12 05:19:55;;;;;;;;;;;10.20;58.00;;;;;;6214925;23;19991;-91
2021/12/12 05:22:37;;;;;;;;;;;10.20;58.10;;;;;;6215102;23;19912;-91
2021/12/12 05:25:08;;;;;;;;;;;10.10;58.40;;;;;;6190071;23;19907;-93
2021/12/12 05:27:35;;;;;;;;;;;10.10;58.70;;;;;;6218024;23;19935;-93
2021/12/12 05:30:10;;;;;;;;;;;10.10;59.00;;;;;;6200445;23;20363;-93
2021/12/12 05:32:36;;;;;;;;;;;10.00;59.40;;;;;;6221736;23;20262;-93
2021/12/12 05:35:03;;;;;;;;;;;10.10;59.90;;;;;;6248102;23;19950;-93
2021/12/12 05:37:29;;;;;;;;;;;10.00;60.20;;;;;;6220834;23;19912;-93
2021/12/12 05:39:57;;;;;;;;;;;10.00;60.50;;;;;;6221276;23;19915;-94
2021/12/12 05:42:23;;;;;;;;;;;10.00;60.70;;;;;;6221064;23;19907;-93
2021/12/12 05:44:49;;;;;;;;;;;9.90;60.60;;;;;;6222390;23;19958;-94
2021/12/12 05:47:14;;;;;;;;;;;9.90;60.90;;;;;;6222448;23;19943;-93
2021/12/12 05:49:41;;;;;;;;;;;9.90;61.20;;;;;;6222972;23;20041;-94
2021/12/12 05:52:09;;;;;;;;;;;9.90;61.30;;;;;;6222466;23;20334;-94
2021/12/12 05:54:34;;;;;;;;;;;9.90;61.50;;;;;;6224016;23;19912;-96
2021/12/12 05:57:01;;;;;;;;;;;9.90;61.60;;;;;;6249581;23;19911;-95
2021/12/12 05:59:27;;;;;;;;;;;9.80;61.60;;;;;;6222442;23;19912;-94
2021/12/12 06:01:52;;;;;;;;;;;9.80;61.80;;;;;;6222299;23;19904;-92
2021/12/12 06:04:18;;;;;;;;;;;9.80;62.00;;;;;;6222411;23;19989;-92
2021/12/12 06:06:44;;;;;;;;;;;9.90;62.00;;;;;;6221933;23;19907;-92
2021/12/12 06:09:12;;;;;;;;;;;9.90;62.10;;;;;;6221901;23;19903;-92
2021/12/12 06:11:39;;;;;;;;;;;10.00;62.20;;;;;;6221288;23;19911;-91
2021/12/12 06:14:06;;;;;;;;;;;9.90;62.30;;;;;;6222688;23;19947;-92
2021/12/12 06:16:33;;;;;;;;;;;10.00;62.40;;;;;;6222043;23;19908;-94
2021/12/12 06:19:00;;;;;;;;;;;10.00;62.50;;;;;;6248069;23;20332;-92
2021/12/12 06:21:26;;;;;;;;;;;10.00;62.50;;;;;;6248119;23;19920;-90
2021/12/12 06:23:52;;;;;;;;;;;9.90;62.60;;;;;;6222358;23;19966;-93
2021/12/12 06:26:19;;;;;;;;;;;10.00;62.70;;;;;;6222039;23;19987;-93
2021/12/12 06:28:44;;;;;;;;;;;10.00;62.60;;;;;;6222703;23;19907;-93
2021/12/12 06:31:10;;;;;;;;;;;10.10;62.70;;;;;;6223818;23;19918;-92
2021/12/12 06:33:37;;;;;;;;;;;10.10;62.60;;;;;;6217701;23;19909;-92
2021/12/12 06:36:04;;;;;;;;;;;10.10;62.60;;;;;;6218608;23;19908;-91
2021/12/12 06:38:30;;;;;;;;;;;10.20;62.70;;;;;;6219300;23;20328;-92
2021/12/12 06:40:55;;;;;;;;;;;10.20;62.80;;;;;;6192046;23;19908;-92
2021/12/12 06:43:21;;;;;;;;;;;10.20;62.80;;;;;;6192545;23;19939;-91
2021/12/12 06:45:47;;;;;;;;;;;10.30;62.80;;;;;;6192832;23;20042;-91
2021/12/12 06:48:13;;;;;;;;;;;10.30;62.80;;;;;;6219570;23;20276;-92
2021/12/12 06:50:40;;;;;;;;;;;10.40;62.80;;;;;;6191553;23;19915;-93
2021/12/12 06:53:05;;;;;;;;;;;10.40;62.70;;;;;;6192116;23;19908;-92
2021/12/12 06:55:31;;;;;;;;;;;10.50;62.80;;;;;;6192411;23;19933;-92
2021/12/12 06:57:57;;;;;;;;;;;10.50;62.70;;;;;;6191841;23;19922;-92
2021/12/12 07:00:24;;;;;;;;;;;10.60;62.50;;;;;;6191133;23;19994;-93
2021/12/12 07:02:49;;;;;;;;;;;10.60;62.50;;;;;;6167523;23;20295;-93
2021/12/12 07:05:17;;;;;;;;;;;10.70;62.10;;;;;;6219747;23;19908;-92
2021/12/12 07:07:43;;;;;;;;;;;10.70;62.30;;;;;;6220961;23;19955;-93
2021/12/12 07:10:09;;;;;;;;;;;10.70;62.10;;;;;;6194523;23;19908;-93
2021/12/12 07:12:35;;;;;;;;;;;10.80;62.10;;;;;;6196449;23;19916;-93
2021/12/12 07:15:02;;;;;;;;;;;10.70;62.10;;;;;;6223325;23;19939;-92
2021/12/12 07:17:28;;;;;;;;;;;10.70;62.00;;;;;;6173243;23;19920;-94
2021/12/12 07:19:53;;;;;;;;;;;10.80;62.10;;;;;;6196516;23;19917;-92
2021/12/12 07:22:19;;;;;;;;;;;10.80;62.10;;;;;;6192609;23;19947;-93
2021/12/12 07:24:45;;;;;;;;;;;10.80;62.10;;;;;;6223872;23;19912;-91
2021/12/12 07:27:14;;;;;;;;;;;10.80;62.00;;;;;;6198258;23;19923;-92
2021/12/12 07:29:39;;;;;;;;;;;10.70;62.00;;;;;;6201439;23;19908;-93
2021/12/12 07:32:05;;;;;;;;;;;10.70;62.20;;;;;;6225911;23;20603;-93
2021/12/12 07:34:31;;;;;;;;;;;10.60;62.30;;;;;;6197509;23;19908;-91
2021/12/12 07:36:59;;;;;;;;;;;10.50;62.50;;;;;;6198579;23;19920;-93
2021/12/12 07:39:25;;;;;;;;;;;10.60;62.60;;;;;;6196994;23;19935;-92
2021/12/12 07:41:51;;;;;;;;;;;10.60;62.70;;;;;;6191577;23;20287;-91
2021/12/12 07:44:18;;;;;;;;;;;10.60;62.80;;;;;;6196740;23;19947;-93
2021/12/12 07:46:44;;;;;;;;;;;10.70;62.90;;;;;;6193462;23;20320;-93
2021/12/12 07:49:10;;;;;;;;;;;10.70;62.90;;;;;;6193122;23;19990;-93
2021/12/12 07:51:40;;;;;;;;;;;10.70;62.90;;;;;;6191142;23;19994;-92
2021/12/12 07:54:07;;;;;;;;;;;10.70;62.80;;;;;;6218189;23;19914;-92
2021/12/12 07:56:33;;;;;;;;;;;10.70;62.80;;;;;;6222334;23;19924;-93
2021/12/12 07:59:00;;;;;;;;;;;10.70;62.90;;;;;;6194851;23;19915;-92
2021/12/12 08:01:29;;;;;;;;;;;10.70;63.00;;;;;;6193789;23;19918;-92
2021/12/12 08:03:56;;;;;;;;;;;10.70;63.00;;;;;;6193597;23;20240;-92
2021/12/12 08:06:22;;;;;;;;;;;10.70;63.10;;;;;;6196579;23;19916;-93
2021/12/12 08:08:48;;;;;;;;;;;10.70;63.10;;;;;;6220256;23;19915;-92
2021/12/12 08:11:17;;;;;;;;;;;10.70;63.20;;;;;;6218489;23;19915;-92
2021/12/12 08:13:43;;;;;;;;;;;10.60;63.30;;;;;;6190819;23;20347;-92
2021/12/12 08:16:09;;;;;;;;;;;10.70;63.30;;;;;;6191706;23;19908;-92
2021/12/12 08:18:37;;;;;;;;;;;10.70;63.40;;;;;;6192930;23;19939;-93
2021/12/12 08:21:03;;;;;;;;;;;10.60;63.40;;;;;;6219853;23;19904;-93
2021/12/12 08:23:28;;;;;;;;;;;10.70;63.40;;;;;;6218658;23;19939;-92
2021/12/12 08:25:55;;;;;;;;;;;10.70;63.40;;;;;;6192941;23;19912;-93
2021/12/12 08:28:20;;;;;;;;;;;10.70;63.30;;;;;;6193173;23;19912;-92
2021/12/12 08:30:47;;;;;;;;;;;10.70;63.50;;;;;;6219170;23;19911;-92
2021/12/12 08:33:13;;;;;;;;;;;10.70;63.40;;;;;;6221830;23;19916;-92
2021/12/12 08:35:39;;;;;;;;;;;10.80;63.40;;;;;;6200699;23;19904;-93
2021/12/12 08:38:06;;;;;;;;;;;10.80;63.40;;;;;;6202793;23;19920;-93
2021/12/12 08:40:34;;;;;;;;;;;10.80;63.40;;;;;;6192738;23;19985;-92
2021/12/12 08:43:00;;;;;;;;;;;10.80;63.50;;;;;;6192397;23;19942;-93
2021/12/12 08:45:29;;;;;;;;;;;10.70;63.60;;;;;;6219932;23;19931;-94
2021/12/12 08:47:55;;;;;;;;;;;10.70;63.60;;;;;;6221030;23;19922;-94
2021/12/12 08:50:22;;;;;;;;;;;10.70;63.70;;;;;;6220715;23;20293;-93
2021/12/12 08:52:49;;;;;;;;;;;10.70;63.70;;;;;;6193273;23;19912;-94
2021/12/12 08:55:19;;;;;;;;;;;10.80;63.80;;;;;;6193853;23;19912;-93
2021/12/12 09:00:15;;;;;;;;;;;10.70;63.90;;;;;;6219206;23;19904;-92
2021/12/12 09:02:41;;;;;;;;;;;10.80;63.90;;;;;;6218895;23;19966;-94
2021/12/12 09:05:10;;;;;;;;;;;10.80;63.80;;;;;;6192838;23;19942;-91
2021/12/12 09:07:39;;;;;;;;;;;10.80;64.00;;;;;;6193977;23;20368;-91
2021/12/12 09:10:09;;;;;;;;;;;10.90;63.90;;;;;;6194557;23;19908;-91
2021/12/12 09:12:37;;;;;;;;;;;10.80;64.10;;;;;;6194417;23;19978;-93
2021/12/12 09:15:07;;;;;;;;;;;10.90;64.00;;;;;;6193479;23;19908;-90
2021/12/12 09:18:02;;;;;;;;;;;10.90;64.00;;;;;;6194050;23;19986;-94
2021/12/12 09:20:34;;;;;;;;;;;10.90;64.20;;;;;;6216905;23;19907;-92
2021/12/12 09:23:07;;;;;;;;;;;11.00;64.10;;;;;;6194124;23;19908;-92
2021/12/12 09:25:37;;;;;;;;;;;11.00;64.00;;;;;;6191713;23;19919;-93
2021/12/12 09:28:05;;;;;;;;;;;11.00;63.90;;;;;;6190324;23;19908;-91
2021/12/12 09:30:31;;;;;;;;;;;11.00;64.00;;;;;;6190500;23;19938;-91
2021/12/12 09:33:04;;;;;;;;;;;11.00;64.10;;;;;;6217266;23;19912;-91
2021/12/12 09:35:32;;;;;;;;;;;11.10;64.10;;;;;;6217742;23;19908;-90
2021/12/12 09:38:10;;;;;;;;;;;11.10;64.10;;;;;;6193152;23;20347;-94
2021/12/12 09:40:41;;;;;;;;;;;11.10;64.20;;;;;;6217898;23;20477;-93
2021/12/12 09:43:25;;;;;;;;;;;11.20;64.20;;;;;;6193050;23;19972;-93
2021/12/12 09:46:18;;;;;;;;;;;11.20;64.20;;;;;;6196225;23;19935;-93
2021/12/12 09:51:34;;;;;;;;;;;11.30;64.30;;;;;;6220789;23;19962;-92
2021/12/12 09:54:20;;;;;;;;;;;11.30;64.50;;;;;;6193607;23;19920;-93
2021/12/12 09:56:51;;;;;;;;;;;11.40;64.40;;;;;;6192478;23;19926;-92
2021/12/12 09:59:28;;;;;;;;;;;11.50;64.30;;;;;;6218205;23;19904;-91
2021/12/12 10:02:04;;;;;;;;;;;11.50;64.40;;;;;;6219828;23;19915;-93
2021/12/12 10:04:48;;;;;;;;;;;11.60;64.30;;;;;;6222669;23;19975;-92
2021/12/12 10:07:19;;;;;;;;;;;11.60;64.30;;;;;;6226311;23;19912;-93
2021/12/12 10:09:52;;;;;;;;;;;11.60;64.40;;;;;;6226386;23;19919;-91
2021/12/12 10:12:23;;;;;;;;;;;11.70;64.40;;;;;;6200448;23;19947;-91
2021/12/12 10:14:51;;;;;;;;;;;11.80;64.40;;;;;;6201720;23;19914;-93
2021/12/12 10:17:26;;;;;;;;;;;11.80;64.40;;;;;;6227170;23;19919;-93
2021/12/12 10:20:10;;;;;;;;;;;11.80;64.40;;;;;;6229491;23;19915;-93
2021/12/12 10:22:36;;;;;;;;;;;11.80;64.40;;;;;;6226097;23;19950;-93
2021/12/12 10:25:02;;;;;;;;;;;11.90;64.50;;;;;;6199978;23;19908;-93
2021/12/12 10:27:27;;;;;;;;;;;11.90;64.40;;;;;;6201790;23;19908;-91
2021/12/12 10:29:58;;;;;;;;;;;11.90;64.30;;;;;;6225707;23;19918;-90
2021/12/12 10:32:27;;;;;;;;;;;11.90;64.30;;;;;;6224798;23;19908;-90
2021/12/12 10:35:05;;;;;;;;;;;11.80;64.40;;;;;;6224078;23;19916;-91
2021/12/12 10:37:40;;;;;;;;;;;12.00;64.40;;;;;;6223896;23;19911;-91
2021/12/12 10:40:08;;;;;;;;;;;12.00;64.50;;;;;;6198131;23;20229;-91
2021/12/12 10:42:42;;;;;;;;;;;12.00;64.30;;;;;;6201961;23;20340;-91
2021/12/12 10:45:12;;;;;;;;;;;12.10;64.30;;;;;;6226309;23;19912;-91
2021/12/12 10:47:38;;;;;;;;;;;12.10;64.20;;;;;;6194891;23;20316;-90
2021/12/12 10:50:13;;;;;;;;;;;12.20;64.20;;;;;;6196491;23;19919;-91
2021/12/12 10:52:42;;;;;;;;;;;12.20;64.20;;;;;;6198348;23;20630;-92
2021/12/12 10:55:16;;;;;;;;;;;12.20;64.10;;;;;;6221043;23;19912;-91
2021/12/12 10:57:42;;;;;;;;;;;12.30;64.20;;;;;;6193852;23;19924;-91
2021/12/12 11:00:16;;;;;;;;;;;12.30;64.20;;;;;;6194475;23;19958;-91
2021/12/12 11:03:05;;;;;;;;;;;12.30;64.20;;;;;;6193623;23;19908;-89
2021/12/12 11:05:35;;;;;;;;;;;12.20;64.20;;;;;;6220181;23;19998;-93
2021/12/12 11:08:14;;;;;;;;;;;12.20;64.20;;;;;;6221470;23;19911;-93
2021/12/12 11:10:40;;;;;;;;;;;12.20;64.20;;;;;;6193599;23;19921;-92
2021/12/12 11:13:09;;;;;;;;;;;12.30;64.40;;;;;;6222105;23;19919;-91
2021/12/12 11:15:42;;;;;;;;;;;12.30;64.40;;;;;;6196259;23;20305;-93
2021/12/12 11:18:08;;;;;;;;;;;12.30;64.40;;;;;;6194457;23;19927;-91
2021/12/12 11:20:35;;;;;;;;;;;12.30;64.40;;;;;;6193435;23;19919;-92
2021/12/12 11:23:06;;;;;;;;;;;12.30;64.40;;;;;;6193989;23;20347;-91
2021/12/12 11:25:35;;;;;;;;;;;12.30;64.50;;;;;;6194484;23;20347;-93
2021/12/12 11:28:03;;;;;;;;;;;12.30;64.50;;;;;;6219764;23;19904;-91
2021/12/12 11:30:39;;;;;;;;;;;12.30;64.50;;;;;;6225000;23;19928;-92
2021/12/12 11:33:06;;;;;;;;;;;12.30;64.50;;;;;;6221298;23;19963;-91
2021/12/12 11:35:32;;;;;;;;;;;12.40;64.70;;;;;;6194607;23;19915;-94
2021/12/12 11:37:58;;;;;;;;;;;12.40;64.50;;;;;;6221061;23;19908;-92
2021/12/12 11:40:31;;;;;;;;;;;12.30;64.70;;;;;;6194552;23;19955;-91
2021/12/12 11:42:57;;;;;;;;;;;12.40;64.60;;;;;;6194682;23;19908;-93
2021/12/12 11:45:31;;;;;;;;;;;12.40;64.60;;;;;;6196438;23;19971;-92
2021/12/12 11:48:16;;;;;;;;;;;12.40;64.90;;;;;;6198917;23;19911;-92
2021/12/12 11:50:46;;;;;;;;;;;12.40;64.80;;;;;;6200766;23;20362;-92
2021/12/12 11:53:31;;;;;;;;;;;12.50;64.90;;;;;;6199892;23;19908;-90
2021/12/12 11:56:10;;;;;;;;;;;12.60;64.80;;;;;;6198404;23;19935;-91
2021/12/12 11:58:59;;;;;;;;;;;12.60;64.90;;;;;;6200252;23;19908;-91
2021/12/12 12:01:40;;;;;;;;;;;12.60;64.90;;;;;;6226626;23;19922;-92
2021/12/12 12:04:11;;;;;;;;;;;12.70;65.00;;;;;;6204147;23;20320;-91
2021/12/12 12:06:47;;;;;;;;;;;12.70;65.00;;;;;;6200664;23;19982;-91
2021/12/12 12:09:32;;;;;;;;;;;12.80;64.90;;;;;;6196886;23;20218;-91
2021/12/12 12:12:16;;;;;;;;;;;12.80;64.90;;;;;;6225146;23;19927;-91
2021/12/12 12:14:51;;;;;;;;;;;12.80;64.80;;;;;;6199631;23;19900;-92
2021/12/12 12:17:24;;;;;;;;;;;12.90;64.80;;;;;;6199228;23;19908;-92
2021/12/12 12:20:05;;;;;;;;;;;12.90;64.70;;;;;;6200069;23;19912;-92
2021/12/12 12:22:36;;;;;;;;;;;13.00;64.80;;;;;;6200479;23;19978;-92
2021/12/12 12:25:16;;;;;;;;;;;13.00;64.90;;;;;;6227547;23;20297;-92
2021/12/12 12:27:45;;;;;;;;;;;13.10;64.90;;;;;;6226652;23;19973;-95
2021/12/12 12:30:11;;;;;;;;;;;13.20;64.90;;;;;;6199241;23;19916;-92
2021/12/12 12:32:58;;;;;;;;;;;13.20;64.80;;;;;;6209543;23;19911;-92
2021/12/12 12:35:53;;;;;;;;;;;13.20;64.70;;;;;;6229993;23;20348;-92
2021/12/12 12:38:37;;;;;;;;;;;13.20;64.70;;;;;;6202000;23;19935;-92
2021/12/12 12:41:21;;;;;;;;;;;13.30;64.70;;;;;;6226773;23;19959;-93
2021/12/12 12:44:07;;;;;;;;;;;13.30;64.60;;;;;;6199168;23;19904;-93
2021/12/12 12:47:11;;;;;;;;;;;13.30;64.80;;;;;;6198035;23;19912;-92
2021/12/12 12:49:40;;;;;;;;;;;13.30;64.70;;;;;;6197198;23;19919;-91
2021/12/12 12:52:46;;;;;;;;;;;13.30;64.70;;;;;;6198959;23;19915;-93
2021/12/12 12:55:34;;;;;;;;;;;13.30;64.70;;;;;;6081237;23;19917;-94
2021/12/12 12:58:10;;;;;;;;;;;13.30;64.70;;;;;;6078508;23;20357;-93
2021/12/12 13:00:37;;;;;;;;;;;13.30;64.80;;;;;;6190221;23;19958;-93
2021/12/12 13:03:02;;;;;;;;;;;13.30;64.80;;;;;;6202267;23;19914;-94
2021/12/12 13:05:49;;;;;;;;;;;13.30;64.80;;;;;;6200706;23;20217;-90
2021/12/12 13:08:33;;;;;;;;;;;13.30;64.90;;;;;;6222796;23;19915;-92
2021/12/12 13:11:00;;;;;;;;;;;13.30;65.00;;;;;;6224898;23;19935;-90
2021/12/12 13:13:30;;;;;;;;;;;13.30;65.00;;;;;;6196578;23;19908;-92
2021/12/12 13:16:05;;;;;;;;;;;13.30;65.00;;;;;;6223732;23;19926;-90
2021/12/12 13:18:33;;;;;;;;;;;13.40;65.00;;;;;;6196568;23;19899;-90
2021/12/12 13:21:11;;;;;;;;;;;13.30;65.00;;;;;;6223068;23;19966;-91
2021/12/12 13:23:55;;;;;;;;;;;13.40;65.10;;;;;;6191338;23;20343;-90
2021/12/12 13:26:30;;;;;;;;;;;13.40;65.00;;;;;;6190820;23;19916;-90
2021/12/12 13:29:25;;;;;;;;;;;13.50;65.20;;;;;;6192590;23;19904;-90
2021/12/12 13:31:58;;;;;;;;;;;13.50;64.90;;;;;;6168717;23;20222;-89
2021/12/12 13:34:45;;;;;;;;;;;13.60;65.00;;;;;;6167260;23;19958;-92
2021/12/12 13:37:19;;;;;;;;;;;13.50;64.90;;;;;;6191625;23;20283;-90
2021/12/12 13:40:03;;;;;;;;;;;13.60;64.90;;;;;;6192700;23;20234;-90
2021/12/12 13:42:33;;;;;;;;;;;13.60;64.90;;;;;;6221736;23;19915;-90
2021/12/12 13:45:04;;;;;;;;;;;13.70;65.00;;;;;;6221107;23;19915;-91
2021/12/12 13:47:37;;;;;;;;;;;13.70;64.90;;;;;;6197158;23;19912;-90
2021/12/12 13:50:26;;;;;;;;;;;13.70;64.90;;;;;;6221501;23;20236;-92
2021/12/12 13:53:04;;;;;;;;;;;13.70;64.80;;;;;;6196076;23;19943;-91
2021/12/12 13:55:34;;;;;;;;;;;13.80;64.90;;;;;;6194636;23;20011;-90
2021/12/12 13:58:23;;;;;;;;;;;13.80;64.90;;;;;;6221341;23;20343;-91
2021/12/12 14:00:51;;;;;;;;;;;13.80;64.90;;;;;;6153183;23;20232;-90
2021/12/12 14:03:21;;;;;;;;;;;13.80;64.80;;;;;;6220949;23;19904;-92
2021/12/12 14:05:48;;;;;;;;;;;13.80;64.80;;;;;;6219997;23;20213;-92
2021/12/12 14:08:19;;;;;;;;;;;13.90;64.80;;;;;;6220604;23;19908;-93
2021/12/12 14:10:54;;;;;;;;;;;13.80;64.60;;;;;;6192752;23;20324;-92
2021/12/12 14:13:27;;;;;;;;;;;13.80;64.70;;;;;;6220887;23;20292;-91
2021/12/12 14:16:05;;;;;;;;;;;13.80;64.70;;;;;;6194911;23;20423;-90
2021/12/12 14:18:34;;;;;;;;;;;13.80;64.70;;;;;;6193702;23;20051;-92
2021/12/12 14:21:00;;;;;;;;;;;13.80;64.70;;;;;;6220046;23;19908;-93
2021/12/12 14:23:29;;;;;;;;;;;13.80;64.70;;;;;;6220748;23;20193;-92
2021/12/12 14:26:02;;;;;;;;;;;13.90;64.70;;;;;;6220808;23;20616;-91
2021/12/12 14:28:28;;;;;;;;;;;13.80;64.50;;;;;;6194747;23;19955;-91
2021/12/12 14:30:55;;;;;;;;;;;13.90;64.60;;;;;;6202054;23;19916;-91
2021/12/12 14:33:23;;;;;;;;;;;13.80;64.80;;;;;;6217066;23;20003;-91
2021/12/12 14:35:50;;;;;;;;;;;13.80;64.80;;;;;;6241866;23;19990;-92
2021/12/12 14:38:17;;;;;;;;;;;13.80;64.80;;;;;;6243236;23;19911;-94
2021/12/12 14:40:47;;;;;;;;;;;13.80;64.80;;;;;;6222693;23;19912;-93
2021/12/12 14:43:18;;;;;;;;;;;13.80;64.90;;;;;;6245246;23;19931;-92
2021/12/12 14:45:45;;;;;;;;;;;13.80;64.90;;;;;;6245497;23;19912;-92
2021/12/12 14:48:15;;;;;;;;;;;13.80;64.90;;;;;;6245962;23;19918;-92
2021/12/12 14:50:51;;;;;;;;;;;13.80;64.90;;;;;;6245514;23;19912;-91
2021/12/12 14:53:18;;;;;;;;;;;13.90;64.80;;;;;;6245630;23;19908;-93
2021/12/12 14:56:01;;;;;;;;;;;13.90;64.80;;;;;;6221943;23;19931;-91